Time;durP1;ratioP1;P1;durP2;ratioP2;P2;SDS_P1;SDS_P2;PMS_P1;PMS_P2;Temp;Humidity;BMP_temperature;BMP_pressure;BME280_temperature;BME280_humidity;BME280_pressure;Samples;Min_cycle;Max_cycle;Signal;HPM_P1;HPM_P2
2022/04/09 00:01:35;;;;;;;2.63;2.42;;;;;;;2.33;100.00;96458.03;10426806;28;20045;-64
2022/04/09 00:06:39;;;;;;;2.63;2.42;;;;;;;2.32;100.00;96457.16;10426644;28;20033;-65
2022/04/09 00:11:42;;;;;;;2.60;2.40;;;;;;;2.34;100.00;96460.50;10429554;28;20095;-61
2022/04/09 00:16:45;;;;;;;3.97;2.65;;;;;;;2.31;100.00;96455.50;10428374;28;20080;-61
2022/04/09 00:21:51;;;;;;;2.97;2.78;;;;;;;2.35;100.00;96466.66;10413552;28;20045;-64
2022/04/09 00:26:54;;;;;;;3.35;3.05;;;;;;;2.34;100.00;96470.31;10427795;28;20049;-62
2022/04/09 00:31:57;;;;;;;3.00;2.70;;;;;;;2.31;100.00;96468.78;10414572;28;20129;-62
2022/04/09 00:37:04;;;;;;;3.03;2.83;;;;;;;2.35;100.00;96487.94;10428345;28;20769;-61
2022/04/09 00:42:14;;;;;;;2.83;2.63;;;;;;;2.33;100.00;96489.91;10425608;28;20048;-61
2022/04/09 00:47:17;;;;;;;3.22;2.80;;;;;;;2.37;100.00;96507.19;10484280;28;20040;-70
2022/04/09 00:52:24;;;;;;;2.90;2.60;;;;;;;2.38;100.00;96516.81;10480433;28;20052;-70
2022/04/09 00:57:28;;;;;;;2.83;2.63;;;;;;;2.36;100.00;96522.31;10469321;28;20076;-70
2022/04/09 01:02:32;;;;;;;3.03;2.80;;;;;;;2.36;100.00;96548.03;10470023;28;20730;-65
2022/04/09 01:07:38;;;;;;;3.20;2.90;;;;;;;2.32;100.00;96560.78;10406351;28;20049;-65
2022/04/09 01:12:42;;;;;;;2.92;2.72;;;;;;;2.35;100.00;96547.22;10224704;28;5002017;-61
2022/04/09 01:17:46;;;;;;;3.10;2.90;;;;;;;2.37;100.00;96545.22;10415583;28;20840;-65
2022/04/09 01:22:54;;;;;;;3.00;2.80;;;;;;;2.36;100.00;96554.19;10407078;28;20052;-64
2022/04/09 01:27:58;;;;;;;3.50;3.20;;;;;;;2.35;100.00;96576.44;10409416;28;20098;-64
2022/04/09 01:33:01;;;;;;;3.33;2.90;;;;;;;2.35;100.00;96580.94;10426112;28;20119;-64
2022/04/09 01:38:06;;;;;;;3.20;3.00;;;;;;;2.36;100.00;96602.03;10406729;28;20060;-64
2022/04/09 01:43:09;;;;;;;3.15;2.95;;;;;;;2.36;100.00;96617.13;10421595;28;20992;-64
2022/04/09 01:48:13;;;;;;;3.20;2.90;;;;;;;2.37;100.00;96622.28;10424383;28;20059;-68
2022/04/09 01:53:18;;;;;;;3.42;3.13;;;;;;;2.35;100.00;96629.59;10408470;28;20048;-66
2022/04/09 01:58:22;;;;;;;3.60;3.20;;;;;;;2.33;100.00;96641.38;10419695;28;20060;-65
2022/04/09 02:03:26;;;;;;;3.13;2.90;;;;;;;2.29;100.00;96646.16;10424056;28;20561;-64
2022/04/09 02:08:32;;;;;;;3.95;3.05;;;;;;;2.29;100.00;96651.47;10408514;28;20045;-64
2022/04/09 02:13:39;;;;;;;3.25;2.50;;;;;;;2.30;100.00;96663.75;10413553;28;20052;-62
2022/04/09 02:18:43;;;;;;;3.70;2.72;;;;;;;2.33;100.00;96668.75;10431234;28;20085;-64
2022/04/09 02:23:48;;;;;;;3.25;2.65;;;;;;;2.36;100.00;96686.22;10414169;28;20053;-63
2022/04/09 02:28:52;;;;;;;3.50;2.80;;;;;;;2.40;100.00;96699.06;10415506;28;21011;-63
2022/04/09 02:33:57;;;;;;;4.47;2.80;;;;;;;2.44;100.00;96704.91;10431878;28;20048;-63
2022/04/09 02:39:04;;;;;;;4.53;2.92;;;;;;;2.50;100.00;96714.09;10416296;28;20146;-68
2022/04/09 02:44:08;;;;;;;3.17;2.88;;;;;;;2.58;100.00;96724.78;10414887;28;20061;-64
2022/04/09 02:49:11;;;;;;;6.97;3.08;;;;;;;2.66;100.00;96738.13;10415311;28;20051;-65
2022/04/09 02:54:17;;;;;;;5.70;3.30;;;;;;;2.72;100.00;96747.31;10412085;28;20128;-65
2022/04/09 02:59:23;;;;;;;6.20;3.38;;;;;;;2.70;100.00;96763.44;10412014;28;20049;-64
2022/04/09 03:04:26;;;;;;;3.20;2.90;;;;;;;2.66;100.00;96778.03;10430126;28;20045;-64
2022/04/09 03:09:31;;;;;;;6.32;3.40;;;;;;;2.70;100.00;96779.41;10413427;28;20424;-66
2022/04/09 03:14:34;;;;;;;5.30;3.47;;;;;;;2.80;100.00;96795.28;10430248;28;20132;-64
2022/04/09 03:19:37;;;;;;;5.25;3.40;;;;;;;2.82;100.00;96808.41;10410681;28;20049;-63
2022/04/09 03:24:42;;;;;;;5.53;3.40;;;;;;;2.78;100.00;96814.03;10428470;28;20175;-64
2022/04/09 03:29:49;;;;;;;4.65;3.35;;;;;;;2.80;100.00;96826.34;10411005;28;20049;-65
2022/04/09 03:34:53;;;;;;;5.55;3.22;;;;;;;2.84;100.00;96831.19;10427452;28;20053;-63
2022/04/09 03:40:02;;;;;;;5.32;2.65;;;;;;;2.90;100.00;96846.56;10413029;28;20178;-65
2022/04/09 03:45:07;;;;;;;5.25;2.35;;;;;;;2.97;100.00;96849.47;10414040;28;20132;-64
2022/04/09 03:50:11;;;;;;;4.88;2.08;;;;;;;3.04;100.00;96871.78;10413158;28;20147;-64
2022/04/09 03:55:17;;;;;;;4.72;1.90;;;;;;;3.10;100.00;96880.16;10411652;28;20057;-64
2022/04/09 04:00:21;;;;;;;4.43;1.70;;;;;;;3.17;100.00;96886.53;10399815;28;20505;-64
2022/04/09 04:05:27;;;;;;;4.22;1.48;;;;;;;3.14;100.00;96908.13;10413151;28;20040;-65
2022/04/09 04:10:32;;;;;;;3.65;1.30;;;;;;;3.13;100.00;96912.63;10416083;28;20041;-67
2022/04/09 04:15:50;;;;;;;3.63;1.45;;;;;;;3.12;100.00;96926.91;10398683;28;20053;-65
2022/04/09 04:20:54;;;;;;;3.63;1.20;;;;;;;3.12;100.00;96948.19;10411164;28;20060;-66
2022/04/09 04:26:00;;;;;;;4.38;1.13;;;;;;;3.16;100.00;96943.41;10403136;28;20056;-64
2022/04/09 04:31:19;;;;;;;4.45;1.20;;;;;;;3.10;100.00;96941.38;10424660;28;20164;-68
2022/04/09 04:36:24;;;;;;;4.13;1.48;;;;;;;3.11;100.00;96977.63;10394448;28;20421;-66
2022/04/09 04:41:29;;;;;;;5.38;1.33;;;;;;;3.14;100.00;96972.00;10413125;28;20064;-68
2022/04/09 04:46:34;;;;;;;2.95;1.10;;;;;;;3.17;100.00;96974.34;10415182;28;20063;-64
2022/04/09 04:51:39;;;;;;;3.47;1.10;;;;;;;3.14;100.00;96995.94;10409788;28;20049;-66
2022/04/09 04:56:44;;;;;;;2.78;1.02;;;;;;;3.17;100.00;97008.94;10395967;28;20080;-68
2022/04/09 05:01:47;;;;;;;6.00;1.38;;;;;;;3.21;100.00;97007.69;10406873;28;20059;-65
2022/04/09 05:06:51;;;;;;;2.97;1.20;;;;;;;3.22;100.00;97020.81;10410777;28;20094;-66
2022/04/09 05:11:58;;;;;;;4.45;1.40;;;;;;;3.24;100.00;97039.28;10412256;28;20052;-65
2022/04/09 05:17:10;;;;;;;3.20;1.13;;;;;;;3.26;100.00;97045.31;10412449;28;20523;-65
2022/04/09 05:22:14;;;;;;;2.90;1.00;;;;;;;3.28;100.00;97059.31;10414314;28;20139;-65
2022/04/09 05:27:32;;;;;;;2.28;1.00;;;;;;;3.32;100.00;97078.47;10429279;28;20060;-65
2022/04/09 05:32:40;;;;;;;5.43;1.10;;;;;;;3.28;100.00;97101.91;10411453;28;20051;-62
2022/04/09 05:37:45;;;;;;;3.90;1.15;;;;;;;3.35;100.00;97097.63;10425489;28;20048;-60
2022/04/09 05:42:54;;;;;;;4.55;1.00;;;;;;;3.34;100.00;97108.44;10422959;28;20132;-61
2022/04/09 05:47:57;;;;;;;3.45;1.00;;;;;;;3.39;100.00;97135.47;10409867;28;20044;-60
2022/04/09 05:53:11;;;;;;;3.28;1.05;;;;;;;3.42;100.00;97150.31;10411901;28;20059;-64
2022/04/09 05:58:16;;;;;;;4.07;0.90;;;;;;;3.47;100.00;97142.72;10413357;28;20203;-63
2022/04/09 06:03:23;;;;;;;5.13;1.20;;;;;;;3.52;100.00;97146.63;10419671;28;20493;-61
2022/04/09 06:08:28;;;;;;;2.35;0.90;;;;;;;3.57;100.00;97164.81;10411920;28;20056;-63
2022/04/09 06:13:35;;;;;;;4.65;1.08;;;;;;;3.63;100.00;97166.88;10430150;28;20049;-60
2022/04/09 06:18:39;;;;;;;6.25;1.00;;;;;;;3.67;100.00;97170.94;10413220;28;20049;-57
2022/04/09 06:23:42;;;;;;;3.53;1.00;;;;;;;3.75;100.00;97195.97;10427033;28;20096;-60
2022/04/09 06:28:47;;;;;;;3.78;0.95;;;;;;;3.74;100.00;97192.47;10412778;28;20045;-60
2022/04/09 06:33:51;;;;;;;2.85;0.85;;;;;;;3.67;100.00;97202.03;10426274;28;20063;-65
2022/04/09 06:38:54;;;;;;;3.22;0.90;;;;;;;3.87;100.00;97209.94;10426412;28;20063;-67
2022/04/09 06:44:07;;;;;;;3.45;1.00;;;;;;;4.23;100.00;97218.81;10411391;28;20194;-66
2022/04/09 06:49:20;;;;;;;2.83;1.10;;;;;;;4.17;100.00;97224.75;10411137;28;21394;-66
2022/04/09 06:54:41;;;;;;;3.25;1.00;;;;;;;4.10;100.00;97235.19;10412126;28;20160;-66
2022/04/09 06:59:48;;;;;;;3.78;1.10;;;;;;;4.13;100.00;97234.88;10419269;28;20548;-67
2022/04/09 07:04:51;;;;;;;3.63;1.00;;;;;;;4.08;100.00;97254.97;10418863;28;20049;-65
2022/04/09 07:09:56;;;;;;;2.53;0.95;;;;;;;4.18;100.00;97258.41;10436607;28;20045;-62
2022/04/09 07:15:01;;;;;;;2.97;1.10;;;;;;;3.93;100.00;97275.94;10436250;28;20130;-66
2022/04/09 07:20:06;;;;;;;2.10;0.88;;;;;;;3.66;100.00;97293.56;10436152;28;20056;-65
2022/04/09 07:25:10;;;;;;;3.33;0.98;;;;;;;3.70;100.00;97295.78;10434480;28;20047;-67
2022/04/09 07:30:16;;;;;;;4.43;1.00;;;;;;;3.90;100.00;97301.06;10431578;28;20438;-66
2022/04/09 07:35:19;;;;;;;2.95;0.80;;;;;;;4.28;100.00;97290.34;10435461;28;20164;-66
2022/04/09 07:40:25;;;;;;;3.05;0.90;;;;;;;4.69;100.00;97292.59;10435586;28;20041;-66
2022/04/09 07:45:30;;;;;;;2.50;1.00;;;;;;;4.61;100.00;97299.53;10435027;28;20049;-66
2022/04/09 07:50:33;;;;;;;3.35;0.90;;;;;;;4.53;100.00;97304.78;10432501;28;20106;-66
2022/04/09 07:55:37;;;;;;;2.80;0.90;;;;;;;4.54;100.00;97322.47;10434291;28;20048;-67
2022/04/09 08:00:43;;;;;;;4.43;1.27;;;;;;;4.55;100.00;97329.47;10415282;28;20050;-67
2022/04/09 08:05:47;;;;;;;4.03;1.00;;;;;;;4.68;100.00;97330.94;10406000;28;20072;-66
2022/04/09 08:10:51;;;;;;;3.60;1.00;;;;;;;4.84;100.00;97332.94;10408478;28;20041;-66
2022/04/09 08:15:56;;;;;;;3.60;0.90;;;;;;;5.14;100.00;97331.69;10407861;28;20049;-65
2022/04/09 08:20:59;;;;;;;2.95;0.93;;;;;;;4.99;100.00;97354.59;10402915;28;20041;-65
2022/04/09 08:26:02;;;;;;;4.20;1.20;;;;;;;5.07;100.00;97352.00;10394354;28;20046;-66
2022/04/09 08:31:07;;;;;;;2.35;0.90;;;;;;;5.19;100.00;97355.28;10394864;28;20045;-66
2022/04/09 08:36:11;;;;;;;1.98;0.80;;;;;;;5.33;100.00;97359.25;10392772;28;20045;-64
2022/04/09 08:41:15;;;;;;;2.45;0.80;;;;;;;5.46;100.00;97346.34;10391387;28;20041;-67
2022/04/09 08:46:19;;;;;;;3.13;0.80;;;;;;;5.58;100.00;97354.09;10376703;28;20473;-66
2022/04/09 08:51:23;;;;;;;2.47;0.88;;;;;;;5.47;100.00;97369.34;10399608;28;20075;-65
2022/04/09 08:56:34;;;;;;;2.72;0.70;;;;;;;4.94;100.00;97393.25;10386978;28;20045;-65
2022/04/09 09:01:39;;;;;;;2.33;0.80;;;;;;;4.96;100.00;97387.75;10388214;28;21076;-66
2022/04/09 09:06:45;;;;;;;2.13;0.70;;;;;;;4.93;100.00;97386.25;10404036;28;20052;-63
2022/04/09 09:11:49;;;;;;;4.13;1.05;;;;;;;4.79;100.00;97416.09;10404889;28;20167;-65
2022/04/09 09:16:55;;;;;;;2.97;0.82;;;;;;;3.67;100.00;97444.41;10403243;28;20148;-65
2022/04/09 09:21:59;;;;;;;3.40;1.10;;;;;;;3.45;100.00;97437.56;10407683;28;20065;-65
2022/04/09 09:27:04;;;;;;;2.03;0.88;;;;;;;3.91;100.00;97438.63;10404711;28;20045;-66
2022/04/09 09:32:11;;;;;;;3.60;0.98;;;;;;;4.58;100.00;97429.72;10384750;28;20140;-66
2022/04/09 09:37:22;;;;;;;3.28;0.90;;;;;;;5.04;100.00;97424.38;10402852;28;20497;-66
2022/04/09 09:42:26;;;;;;;2.35;1.00;;;;;;;5.23;100.00;97410.88;10405211;28;20049;-66
2022/04/09 09:47:30;;;;;;;2.00;0.73;;;;;;;5.62;100.00;97414.22;10400582;28;20045;-65
2022/04/09 09:52:36;;;;;;;2.85;0.73;;;;;;;5.77;100.00;97419.84;10405859;28;20069;-66
2022/04/09 09:57:40;;;;;;;1.55;0.70;;;;;;;5.87;100.00;97425.97;10442778;23;20048;-60
2022/04/09 10:02:45;;;;;;;3.13;0.70;;;;;;;5.58;100.00;97435.06;10463979;28;20055;-59
2022/04/09 10:07:50;;;;;;;1.50;0.70;;;;;;;5.52;100.00;97447.22;10446043;28;20083;-61
2022/04/09 10:12:57;;;;;;;2.33;0.77;;;;;;;5.90;100.00;97435.50;10467790;28;20431;-62
2022/04/09 10:18:08;;;;;;;1.40;0.70;;;;;;;5.89;100.00;97452.50;10465672;28;20048;-62
2022/04/09 10:23:13;;;;;;;0.90;0.50;;;;;;;5.16;100.00;97449.88;10464366;28;20153;-58
2022/04/09 10:28:30;;;;;;;2.17;0.70;;;;;;;5.66;100.00;97461.84;10434953;28;20078;-60
2022/04/09 10:33:36;;;;;;;1.13;0.60;;;;;;;5.97;100.00;97444.56;10456230;28;20049;-62
2022/04/09 10:38:40;;;;;;;0.88;0.60;;;;;;;6.25;100.00;97449.78;10456531;28;20059;-59
2022/04/09 10:43:44;;;;;;;2.03;0.70;;;;;;;6.11;100.00;97444.03;10459176;28;20124;-59
2022/04/09 10:48:49;;;;;;;1.77;0.60;;;;;;;5.74;100.00;97474.44;10457902;28;20118;-59
2022/04/09 10:53:53;;;;;;;0.70;0.40;;;;;;;6.09;100.00;97466.56;10453522;28;20041;-58
2022/04/09 10:59:08;;;;;;;1.70;0.52;;;;;;;6.11;100.00;97465.41;10468761;28;20552;-61
2022/04/09 11:04:39;;;;;;;1.65;0.60;;;;;;;6.38;100.00;97460.03;10472864;28;20090;-59
2022/04/09 11:09:54;;;;;;;1.10;0.47;;;;;;;6.54;100.00;97446.78;10470450;28;20080;-59
2022/04/09 11:14:59;;;;;;;1.83;0.70;;;;;;;6.66;100.00;97451.84;10470670;28;20083;-61
2022/04/09 11:20:05;;;;;;;2.05;0.55;;;;;;;6.46;100.00;97457.44;10468971;28;20052;-61
2022/04/09 11:25:18;;;;;;;2.13;0.70;;;;;;;5.16;100.00;97534.47;10469315;28;20040;-61
2022/04/09 11:30:22;;;;;;;1.80;0.60;;;;;;;4.48;100.00;97526.59;10462116;28;20056;-59
2022/04/09 11:35:33;;;;;;;1.73;0.90;;;;;;;4.92;100.00;97528.69;10466122;28;20047;-60
2022/04/09 11:40:38;;;;;;;1.23;0.80;;;;;;;5.12;100.00;97511.72;10469156;28;20071;-58
2022/04/09 11:45:44;;;;;;;1.55;0.80;;;;;;;5.54;100.00;97493.31;10467747;28;20143;-58
2022/04/09 11:50:50;;;;;;;1.85;0.70;;;;;;;6.21;100.00;97504.56;10472765;28;20514;-61
2022/04/09 11:55:59;;;;;;;0.60;0.40;;;;;;;4.16;100.00;97549.13;10470980;28;20123;-60
2022/04/09 12:01:02;;;;;;;0.93;0.50;;;;;;;3.94;100.00;97544.91;10468437;28;20528;-61
2022/04/09 12:06:07;;;;;;;0.85;0.40;;;;;;;4.53;100.00;97544.00;10466689;28;20112;-59
2022/04/09 12:11:12;;;;;;;2.03;0.40;;;;;;;5.00;100.00;97537.81;10465851;28;20110;-60
2022/04/09 12:16:17;;;;;;;1.40;0.57;;;;;;;5.25;100.00;97533.56;10468263;28;20481;-61
2022/04/09 12:21:24;;;;;;;2.63;0.75;;;;;;;5.54;100.00;97511.16;10450115;28;20076;-61
2022/04/09 12:26:27;;;;;;;1.40;0.80;;;;;;;6.23;100.00;97511.47;10468393;28;20076;-61
2022/04/09 12:31:32;;;;;;;1.05;0.70;;;;;;;6.23;100.00;97489.22;10468951;28;20045;-61
2022/04/09 12:36:38;;;;;;;1.52;0.60;;;;;;;6.37;100.00;97509.19;10469740;28;20508;-61
2022/04/09 12:41:46;;;;;;;0.52;0.50;;;;;;;6.39;100.00;97501.84;10466008;28;20554;-62
2022/04/09 12:46:50;;;;;;;1.45;0.55;;;;;;;6.78;100.00;97491.53;10469390;28;20052;-62
2022/04/09 12:51:56;;;;;;;0.98;0.50;;;;;;;6.95;100.00;97505.00;10468988;28;20048;-62
2022/04/09 12:57:05;;;;;;;1.00;0.50;;;;;;;7.12;100.00;97497.00;10468407;28;20139;-61
2022/04/09 13:02:10;;;;;;;1.42;0.60;;;;;;;6.95;100.00;97507.69;10470555;28;20074;-61
2022/04/09 13:07:16;;;;;;;1.40;0.68;;;;;;;6.82;100.00;97516.16;10466904;28;20063;-61
2022/04/09 13:12:19;;;;;;;1.25;0.68;;;;;;;6.94;100.00;97514.03;10466741;28;20109;-59
2022/04/09 13:17:24;;;;;;;1.33;0.60;;;;;;;6.92;100.00;97522.25;10465377;28;20059;-61
2022/04/09 13:22:29;;;;;;;2.03;0.68;;;;;;;6.81;100.00;97527.03;10467584;28;20408;-60
2022/04/09 13:27:34;;;;;;;2.47;0.75;;;;;;;6.74;100.00;97503.59;10466077;28;20049;-61
2022/04/09 13:32:38;;;;;;;1.67;0.75;;;;;;;6.84;100.00;97518.69;10467511;28;20056;-60
2022/04/09 13:37:42;;;;;;;1.45;0.70;;;;;;;6.97;100.00;97513.72;10467162;28;20127;-62
2022/04/09 13:42:48;;;;;;;1.45;0.70;;;;;;;7.17;100.00;97514.31;10465647;28;20195;-59
2022/04/09 13:47:52;;;;;;;1.58;0.70;;;;;;;7.07;100.00;97519.78;10465713;28;20118;-62
2022/04/09 13:52:58;;;;;;;1.70;0.73;;;;;;;6.79;100.00;97511.13;10462803;28;20060;-62
2022/04/09 13:58:01;;;;;;;1.83;0.80;;;;;;;7.22;100.00;97520.00;10466421;28;20143;-61
2022/04/09 14:03:06;;;;;;;1.33;0.60;;;;;;;7.52;100.00;97504.34;10445234;28;20135;-61
2022/04/09 14:08:11;;;;;;;1.30;0.60;;;;;;;8.00;100.00;97514.44;10447186;28;20139;-61
2022/04/09 14:13:14;;;;;;;0.85;0.70;;;;;;;8.24;100.00;97537.75;10466310;28;20145;-60
2022/04/09 14:18:18;;;;;;;0.70;0.60;;;;;;;8.16;100.00;97532.41;10463884;28;20392;-62
2022/04/09 14:23:22;;;;;;;1.70;0.70;;;;;;;7.98;100.00;97516.47;10463028;28;20091;-62
2022/04/09 14:28:26;;;;;;;1.45;0.68;;;;;;;7.56;100.00;97534.34;10463739;28;20053;-62
2022/04/09 14:33:29;;;;;;;1.30;0.50;;;;;;;7.01;100.00;97567.78;10458437;28;20048;-61
2022/04/09 14:38:34;;;;;;;1.35;0.30;;;;;;;6.22;100.00;97591.84;10451576;28;20119;-60
2022/04/09 14:43:38;;;;;;;0.22;0.20;;;;;;;5.31;100.00;97601.56;10432604;28;20049;-61
2022/04/09 14:48:41;;;;;;;0.73;0.40;;;;;;;5.31;100.00;97630.97;10450008;28;20056;-61
2022/04/09 14:53:45;;;;;;;0.75;0.40;;;;;;;5.84;100.00;97598.16;10451496;28;20123;-60
2022/04/09 14:58:48;;;;;;;0.80;0.40;;;;;;;6.27;100.00;97603.75;10447112;28;20134;-62
2022/04/09 15:03:52;;;;;;;0.77;0.40;;;;;;;6.41;100.00;97597.00;10460948;28;20041;-62
2022/04/09 15:08:56;;;;;;;1.13;0.35;;;;;;;6.87;100.00;97598.69;10466813;28;20050;-62
2022/04/09 15:14:00;;;;;;;0.80;0.30;;;;;;;6.96;100.00;97603.09;10466794;28;20921;-62
2022/04/09 15:19:05;;;;;;;0.55;0.25;;;;;;;7.11;100.00;97610.53;10468913;28;20627;-62
2022/04/09 15:24:11;;;;;;;1.33;0.50;;;;;;;7.35;100.00;97597.22;10454280;28;20072;-61
2022/04/09 15:29:14;;;;;;;0.75;0.30;;;;;;;7.31;100.00;97629.88;10471253;28;20114;-61
2022/04/09 15:34:17;;;;;;;0.45;0.40;;;;;;;7.58;100.00;97627.97;10469960;28;20048;-60
2022/04/09 15:39:22;;;;;;;0.63;0.47;;;;;;;7.67;100.00;97622.50;10471405;28;20064;-60
2022/04/09 15:44:25;;;;;;;0.95;0.50;;;;;;;7.73;100.00;97615.66;10473908;28;20548;-62
2022/04/09 15:49:29;;;;;;;0.43;0.30;;;;;;;7.88;100.00;97628.44;10470785;28;20052;-61
2022/04/09 15:54:33;;;;;;;1.38;0.60;;;;;;;7.96;100.00;97620.38;10472011;28;20040;-61
2022/04/09 15:59:36;;;;;;;0.70;0.40;;;;;;;7.50;100.00;97626.09;10447187;22;20057;-63
2022/04/09 16:04:40;;;;;;;0.80;0.40;;;;;;;6.98;100.00;97638.59;10433692;28;20049;-63
2022/04/09 16:09:47;;;;;;;0.90;0.38;;;;;;;6.32;100.00;97673.72;10434982;28;20045;-63
2022/04/09 16:14:51;;;;;;;1.55;0.40;;;;;;;5.48;100.00;97712.16;10413765;28;20049;-63
2022/04/09 16:19:53;;;;;;;0.20;0.20;;;;;;;5.13;100.00;97748.38;10436865;28;21180;-65
2022/04/09 16:25:00;;;;;;;0.47;0.20;;;;;;;4.73;100.00;97742.22;10436808;28;20036;-63
2022/04/09 16:30:05;;;;;;;1.05;0.50;;;;;;;4.36;100.00;97753.59;10430556;28;20049;-65
2022/04/09 16:35:09;;;;;;;0.40;0.30;;;;;;;4.34;100.00;97750.22;10417613;28;20049;-65
2022/04/09 16:40:34;;;;;;;0.30;0.30;;;;;;;4.23;100.00;97762.69;10411191;28;20432;-63
2022/04/09 16:45:38;;;;;;;0.45;0.30;;;;;;;4.10;100.00;97746.09;10414990;28;20623;-64
2022/04/09 16:50:43;;;;;;;0.80;0.30;;;;;;;3.99;100.00;97782.53;10438585;28;20045;-63
2022/04/09 16:56:41;;;;;;;0.55;0.35;;;;;;;3.94;100.00;97789.25;10451189;28;20720;-64
2022/04/09 17:01:45;;;;;;;0.93;0.40;;;;;;;3.51;100.00;97824.00;10504843;28;20052;-65
2022/04/09 17:06:49;;;;;;;0.52;0.38;;;;;;;3.20;100.00;97825.75;10483443;28;20044;-63
2022/04/09 17:11:54;;;;;;;0.57;0.25;;;;;;;3.28;100.00;97823.28;10419120;28;20075;-63
2022/04/09 17:16:59;;;;;;;1.02;0.40;;;;;;;3.30;100.00;97807.16;10428443;28;20041;-63
2022/04/09 17:22:04;;;;;;;0.28;0.20;;;;;;;3.23;100.00;97831.66;10432418;28;20489;-64
2022/04/09 17:27:09;;;;;;;1.27;0.30;;;;;;;3.38;100.00;97837.50;10413002;28;20048;-64
2022/04/09 17:32:13;;;;;;;0.32;0.20;;;;;;;3.61;100.00;97829.34;10429321;28;20087;-63
2022/04/09 17:37:17;;;;;;;0.60;0.30;;;;;;;3.55;100.00;97829.91;10412006;28;20155;-63
2022/04/09 17:42:20;;;;;;;1.08;0.50;;;;;;;3.46;100.00;97833.34;10430410;28;20187;-63
2022/04/09 17:47:26;;;;;;;0.80;0.35;;;;;;;3.33;100.00;97839.72;10429762;28;20120;-64
2022/04/09 17:52:31;;;;;;;0.47;0.38;;;;;;;3.13;100.00;97844.06;10410597;28;20059;-64
2022/04/09 17:57:34;;;;;;;0.30;0.30;;;;;;;2.99;100.00;97857.66;10429705;28;20513;-63
2022/04/09 18:02:38;;;;;;;0.40;0.40;;;;;;;2.88;100.00;97862.06;10426976;28;20526;-64
2022/04/09 18:07:45;;;;;;;0.43;0.40;;;;;;;2.78;100.00;97871.75;10427718;28;20041;-64
2022/04/09 18:12:50;;;;;;;0.75;0.40;;;;;;;2.77;100.00;97876.22;10429140;28;20127;-65
2022/04/09 18:17:54;;;;;;;0.55;0.50;;;;;;;2.68;100.00;97886.78;10429554;28;20441;-65
2022/04/09 18:23:02;;;;;;;1.40;0.60;;;;;;;2.60;100.00;97890.91;10418421;28;20761;-64
2022/04/09 18:28:06;;;;;;;0.63;0.40;;;;;;;2.51;100.00;97885.50;10427071;28;20132;-64
2022/04/09 18:33:11;;;;;;;0.65;0.45;;;;;;;2.44;100.00;97898.44;10429282;28;20042;-65
2022/04/09 18:38:15;;;;;;;0.68;0.50;;;;;;;2.39;100.00;97909.44;10429241;28;20243;-63
2022/04/09 18:43:18;;;;;;;1.05;0.60;;;;;;;2.26;100.00;97917.53;10429320;28;20087;-64
2022/04/09 18:48:23;;;;;;;1.58;0.77;;;;;;;2.18;100.00;97921.75;10427612;28;20134;-64
2022/04/09 18:53:26;;;;;;;1.63;0.75;;;;;;;2.05;100.00;97938.69;10445671;28;20049;-65
2022/04/09 18:58:30;;;;;;;0.52;0.52;;;;;;;1.97;100.00;97946.38;10419526;28;20057;-63
2022/04/09 19:03:35;;;;;;;0.52;0.50;;;;;;;2.02;100.00;97957.50;10418148;28;20057;-65
2022/04/09 19:08:39;;;;;;;0.60;0.50;;;;;;;1.94;100.00;97949.28;10435445;28;20107;-62
2022/04/09 19:13:42;;;;;;;0.40;0.40;;;;;;;2.06;100.00;97956.28;10435835;28;20116;-64
2022/04/09 19:18:46;;;;;;;0.70;0.63;;;;;;;2.33;100.00;97964.91;10434474;28;20045;-63
2022/04/09 19:23:53;;;;;;;1.27;0.60;;;;;;;2.43;100.00;97956.06;10434557;28;20045;-65
2022/04/09 19:28:56;;;;;;;1.52;0.80;;;;;;;2.28;100.00;97965.28;10431771;28;20402;-64
2022/04/09 19:34:02;;;;;;;2.17;0.80;;;;;;;2.18;100.00;97966.91;10434190;28;20246;-64
2022/04/09 19:39:05;;;;;;;0.95;0.75;;;;;;;2.14;100.00;97963.66;10430706;28;20051;-63
2022/04/09 19:44:09;;;;;;;1.00;0.80;;;;;;;2.09;100.00;97974.66;10435169;28;20067;-63
2022/04/09 19:49:14;;;;;;;0.73;0.70;;;;;;;2.11;100.00;97980.69;10432450;28;20056;-64
2022/04/09 19:54:18;;;;;;;1.60;1.00;;;;;;;2.12;100.00;97971.75;10434306;28;20057;-62
2022/04/09 19:59:21;;;;;;;1.10;0.90;;;;;;;2.08;100.00;97967.66;10432002;28;20063;-61
2022/04/09 20:04:26;;;;;;;1.95;1.00;;;;;;;2.21;100.00;97964.03;10433274;28;20037;-63
2022/04/09 20:09:29;;;;;;;2.88;1.55;;;;;;;2.14;100.00;97961.00;10431985;28;20045;-64
2022/04/09 20:14:34;;;;;;;2.47;1.52;;;;;;;2.20;100.00;97967.66;10431306;28;20171;-64
2022/04/09 20:19:39;;;;;;;2.65;1.05;;;;;;;2.17;100.00;97968.75;10433022;28;20122;-62
2022/04/09 20:24:45;;;;;;;2.25;1.00;;;;;;;2.14;100.00;97974.28;10432702;28;20239;-63
2022/04/09 20:29:48;;;;;;;2.35;1.10;;;;;;;2.07;100.00;97989.88;10429919;28;20045;-63
2022/04/09 20:34:52;;;;;;;1.08;0.90;;;;;;;2.00;100.00;97999.28;10432166;28;20581;-64
2022/04/09 20:39:55;;;;;;;1.55;0.90;;;;;;;1.98;100.00;98012.69;10429522;28;20051;-64
2022/04/09 20:44:58;;;;;;;1.67;0.90;;;;;;;2.05;100.00;98022.84;10430792;28;20040;-64
2022/04/09 20:50:04;;;;;;;1.58;0.80;;;;;;;2.11;100.00;98023.22;10427664;28;20049;-63
2022/04/09 20:55:07;;;;;;;1.23;0.60;;;;;;;2.15;100.00;98024.69;10431683;28;20087;-64
2022/04/09 21:00:11;;;;;;;1.70;0.80;;;;;;;2.14;100.00;98033.63;10430059;28;20053;-65
2022/04/09 21:05:15;;;;;;;1.55;0.65;;;;;;;2.22;100.00;98032.19;10430567;28;20136;-65
2022/04/09 21:10:19;;;;;;;1.55;0.90;;;;;;;2.23;100.00;98028.56;10430769;28;20049;-65
2022/04/09 21:15:22;;;;;;;1.38;0.80;;;;;;;2.24;100.00;98033.75;10432185;28;20144;-65
2022/04/09 21:20:27;;;;;;;1.90;0.88;;;;;;;2.25;100.00;98039.91;10429681;28;20074;-65
2022/04/09 21:25:30;;;;;;;1.92;0.80;;;;;;;2.27;100.00;98044.16;10410759;28;20049;-65
2022/04/09 21:30:35;;;;;;;1.35;0.70;;;;;;;2.25;100.00;98056.69;10429110;28;20231;-65
2022/04/09 21:35:42;;;;;;;1.35;0.75;;;;;;;2.26;100.00;98062.88;10431920;28;20052;-65
2022/04/09 21:40:46;;;;;;;1.63;0.80;;;;;;;2.38;100.00;98061.06;10431498;28;20056;-65
2022/04/09 21:45:50;;;;;;;1.35;0.70;;;;;;;2.39;100.00;98068.09;10431421;28;20047;-65
2022/04/09 21:50:55;;;;;;;1.17;0.80;;;;;;;2.29;100.00;98070.63;10427880;28;20474;-64
2022/04/09 21:55:59;;;;;;;2.80;0.90;;;;;;;2.17;100.00;98060.94;10431456;28;20072;-64
2022/04/09 22:01:03;;;;;;;1.83;0.90;;;;;;;2.07;100.00;98061.59;10426135;28;20061;-64
2022/04/09 22:06:07;;;;;;;2.45;1.10;;;;;;;2.00;100.00;98071.03;10428894;28;20174;-65
2022/04/09 22:11:11;;;;;;;3.38;1.10;;;;;;;1.91;100.00;98085.00;10427041;28;20052;-65
2022/04/09 22:16:14;;;;;;;2.08;1.00;;;;;;;1.85;100.00;98096.94;10432409;28;20047;-65
2022/04/09 22:21:19;;;;;;;1.25;0.90;;;;;;;1.73;100.00;98088.03;10422905;28;20053;-66
2022/04/09 22:26:22;;;;;;;1.55;0.90;;;;;;;1.69;100.00;98097.22;10431284;28;20042;-65
2022/04/09 22:31:25;;;;;;;1.38;0.82;;;;;;;1.78;100.00;98088.56;10414217;28;20544;-65
2022/04/09 22:36:30;;;;;;;1.42;0.80;;;;;;;1.76;100.00;98097.63;10437156;28;20048;-65
2022/04/09 22:41:33;;;;;;;2.38;1.00;;;;;;;1.64;100.00;98094.03;10433891;28;20055;-65
2022/04/09 22:46:36;;;;;;;1.40;0.60;;;;;;;1.69;100.00;98092.75;10436085;28;20407;-66
2022/04/09 22:51:41;;;;;;;1.92;0.70;;;;;;;1.72;100.00;98096.16;10435118;28;20067;-66
2022/04/09 22:56:44;;;;;;;1.83;0.60;;;;;;;1.76;100.00;98094.97;10435791;28;20102;-66
2022/04/09 23:01:47;;;;;;;2.47;0.93;;;;;;;1.77;100.00;98096.63;10416940;28;20053;-66
2022/04/09 23:06:54;;;;;;;2.35;0.80;;;;;;;1.66;100.00;98105.41;10435534;28;20068;-66
2022/04/09 23:11:57;;;;;;;1.92;0.70;;;;;;;1.64;100.00;98107.31;10435607;28;20045;-65
2022/04/09 23:16:59;;;;;;;2.00;0.80;;;;;;;1.66;100.00;98113.38;10416830;28;20140;-65
2022/04/09 23:22:05;;;;;;;2.97;0.85;;;;;;;1.66;100.00;98118.69;10435628;28;20049;-65
2022/04/09 23:27:07;;;;;;;2.47;0.82;;;;;;;1.81;100.00;98109.59;10417191;28;20060;-65
2022/04/09 23:32:10;;;;;;;3.60;1.00;;;;;;;1.82;100.00;98119.22;10435824;28;20140;-65
2022/04/09 23:37:15;;;;;;;3.10;0.90;;;;;;;1.96;100.00;98126.19;10414093;28;21250;-65